createdAt,value
2022-08-24T00:03:46.392Z,16.45
2022-08-24T00:08:43.176Z,17.55
2022-08-24T00:11:10.482Z,15.75
2022-08-24T00:13:39.797Z,18.77
2022-08-24T00:16:12.157Z,18.77
2022-08-24T00:18:41.231Z,20.73
2022-08-24T00:21:09.692Z,17.75
2022-08-24T00:23:38.506Z,18.45
2022-08-24T00:26:07.365Z,19.13
2022-08-24T00:28:35.261Z,20.40
2022-08-24T00:31:03.908Z,19.42
2022-08-24T00:33:35.854Z,17.77
2022-08-24T00:36:07.703Z,16.85
2022-08-24T00:38:36.792Z,18.33
2022-08-24T00:41:06.144Z,16.80
2022-08-24T00:43:35.488Z,15.32
2022-08-24T00:46:21.018Z,18.67
2022-08-24T00:48:52.688Z,14.18
2022-08-24T00:51:51.676Z,14.20
2022-08-24T00:54:19.517Z,20.75
2022-08-24T00:56:54.782Z,16.33
2022-08-24T00:59:27.178Z,16.48
2022-08-24T01:02:01.236Z,22.23
2022-08-24T01:04:51.764Z,22.00
2022-08-24T01:07:23.426Z,20.98
2022-08-24T01:09:59.416Z,22.20
2022-08-24T01:12:29.843Z,20.60
2022-08-24T01:15:01.306Z,21.33
2022-08-24T01:17:47.551Z,19.10
2022-08-24T01:20:15.440Z,21.38
2022-08-24T01:22:55.457Z,18.23
2022-08-24T01:28:02.815Z,16.25
2022-08-24T01:30:36.447Z,24.48
2022-08-24T01:35:39.923Z,23.63
2022-08-24T01:38:12.551Z,26.23
2022-08-24T01:40:57.799Z,20.90
2022-08-24T01:43:25.916Z,23.13
2022-08-24T01:45:54.377Z,18.60
2022-08-24T01:48:23.368Z,19.90
2022-08-24T01:50:53.182Z,23.15
2022-08-24T01:53:25.228Z,21.47
2022-08-24T01:55:56.084Z,27.75
2022-08-24T01:58:24.717Z,24.75
2022-08-24T02:00:54.969Z,22.13
2022-08-24T02:03:30.283Z,21.80
2022-08-24T02:06:02.951Z,25.38
2022-08-24T02:08:32.189Z,19.48
2022-08-24T02:10:59.503Z,18.40
2022-08-24T02:13:28.901Z,19.25
2022-08-24T02:15:56.476Z,21.42
2022-08-24T02:18:24.352Z,19.48
2022-08-24T02:20:53.684Z,20.65
2022-08-24T02:23:22.569Z,20.88
2022-08-24T02:25:50.166Z,18.80
2022-08-24T02:28:18.566Z,19.48
2022-08-24T02:30:47.470Z,22.83
2022-08-24T02:33:15.307Z,18.05
2022-08-24T02:35:48.031Z,16.90
2022-08-24T02:38:15.560Z,16.63
2022-08-24T02:40:43.955Z,14.00
2022-08-24T02:43:14.243Z,12.93
2022-08-24T02:45:49.607Z,14.77
2022-08-24T02:48:22.716Z,14.02
2022-08-24T02:50:53.706Z,14.30
2022-08-24T02:53:27.337Z,14.07
2022-08-24T02:55:55.447Z,14.55
2022-08-24T02:58:22.862Z,16.17
2022-08-24T03:00:54.938Z,21.95
2022-08-24T03:03:23.234Z,20.23
2022-08-24T03:05:52.101Z,22.33
2022-08-24T03:08:22.105Z,19.92
2022-08-24T03:10:50.217Z,18.52
2022-08-24T03:13:18.493Z,18.80
2022-08-24T03:15:46.779Z,17.45
2022-08-24T03:18:14.257Z,22.58
2022-08-24T03:20:44.263Z,17.90
2022-08-24T03:23:12.251Z,19.55
2022-08-24T03:25:41.247Z,22.33
2022-08-24T03:28:15.050Z,18.30
2022-08-24T03:30:48.424Z,17.83
2022-08-24T03:33:19.334Z,20.73
2022-08-24T03:35:47.719Z,23.95
2022-08-24T03:38:17.880Z,24.00
2022-08-24T03:40:45.926Z,22.52
2022-08-24T03:43:33.609Z,23.70
2022-08-24T03:46:04.999Z,22.02
2022-08-24T03:48:33.053Z,17.17
2022-08-24T03:51:01.557Z,17.35
2022-08-24T03:53:29.378Z,15.77
2022-08-24T03:55:56.967Z,19.45
2022-08-24T03:58:24.626Z,15.57
2022-08-24T04:00:52.120Z,13.63
2022-08-24T04:03:20.473Z,16.40
2022-08-24T04:05:47.820Z,15.23
2022-08-24T04:08:17.822Z,16.50
2022-08-24T04:10:46.134Z,17.50
2022-08-24T04:13:13.932Z,17.17
2022-08-24T04:15:43.327Z,17.40
2022-08-24T04:18:14.989Z,16.30
2022-08-24T04:20:44.732Z,16.90
2022-08-24T04:23:17.519Z,18.88
2022-08-24T04:25:47.522Z,16.20
2022-08-24T04:28:23.905Z,22.33
2022-08-24T04:30:51.888Z,17.77
2022-08-24T04:33:33.157Z,21.60
2022-08-24T04:36:03.153Z,20.63
2022-08-24T04:38:33.374Z,17.73
2022-08-24T04:41:42.031Z,19.20
2022-08-24T04:44:11.509Z,18.50
2022-08-24T04:46:46.995Z,15.68
2022-08-24T04:49:16.432Z,16.77
2022-08-24T04:51:44.801Z,12.55
2022-08-24T04:54:12.483Z,14.80
2022-08-24T04:56:40.223Z,14.88
2022-08-24T04:59:07.935Z,15.50
2022-08-24T05:01:35.937Z,15.13
2022-08-24T05:04:06.846Z,22.10
2022-08-24T05:06:35.314Z,16.98
2022-08-24T05:09:05.922Z,18.40
2022-08-24T05:11:36.351Z,14.80
2022-08-24T05:14:05.730Z,14.18
2022-08-24T05:16:38.109Z,19.77
2022-08-24T05:19:07.833Z,14.95
2022-08-24T05:21:36.010Z,19.25
2022-08-24T05:24:04.589Z,19.27
2022-08-24T05:26:33.221Z,22.10
2022-08-24T05:29:03.545Z,19.55
2022-08-24T05:31:45.867Z,21.08
2022-08-24T05:34:16.286Z,19.77
2022-08-24T05:36:44.479Z,25.52
2022-08-24T05:39:33.666Z,22.35
2022-08-24T05:42:07.421Z,21.05
2022-08-24T05:44:43.375Z,16.75
2022-08-24T05:47:11.243Z,16.95
2022-08-24T05:49:41.604Z,17.40
2022-08-24T05:52:12.606Z,25.83
2022-08-24T05:54:44.269Z,15.88
2022-08-24T05:57:16.734Z,22.52
2022-08-24T06:00:04.771Z,19.42
2022-08-24T06:02:44.685Z,20.02
2022-08-24T06:08:41.257Z,20.33
2022-08-24T06:11:31.240Z,21.08
2022-08-24T06:14:07.879Z,26.92
2022-08-24T06:16:43.086Z,28.67
2022-08-24T06:19:13.590Z,26.75
2022-08-24T06:24:09.822Z,33.03
2022-08-24T06:26:57.174Z,31.48
2022-08-24T06:29:35.114Z,38.65
2022-08-24T06:32:23.289Z,30.05
2022-08-24T06:34:55.059Z,32.50
2022-08-24T06:37:29.121Z,27.92
2022-08-24T06:40:01.759Z,25.55
2022-08-24T06:42:33.199Z,33.75
2022-08-24T06:45:02.649Z,30.42
2022-08-24T06:47:32.516Z,30.45
2022-08-24T06:50:05.746Z,33.70
2022-08-24T06:52:36.651Z,31.40
2022-08-24T06:55:06.204Z,39.75
2022-08-24T06:57:33.991Z,35.22
2022-08-24T07:00:05.460Z,42.88
2022-08-24T07:02:36.047Z,45.13
2022-08-24T07:07:53.884Z,43.40
2022-08-24T07:10:22.090Z,38.40
2022-08-24T07:12:53.347Z,37.22
2022-08-24T07:15:21.146Z,34.38
2022-08-24T07:18:02.707Z,31.23
2022-08-24T07:20:34.750Z,33.28
2022-08-24T07:23:10.818Z,30.92
2022-08-24T07:25:38.937Z,34.10
2022-08-24T07:28:11.909Z,31.33
2022-08-24T07:30:44.595Z,36.58
2022-08-24T07:33:15.495Z,35.83
2022-08-24T07:35:44.289Z,29.17
2022-08-24T07:38:13.410Z,27.08
2022-08-24T07:41:09.729Z,25.08
2022-08-24T07:43:36.431Z,29.13
2022-08-24T07:46:09.609Z,26.13
2022-08-24T07:48:38.461Z,24.35
2022-08-24T07:51:10.009Z,25.95
2022-08-24T07:53:53.152Z,23.95
2022-08-24T07:56:29.458Z,28.25
2022-08-24T07:59:07.640Z,23.08
2022-08-24T08:01:45.610Z,21.77
2022-08-24T08:04:25.208Z,21.48
2022-08-24T08:11:53.168Z,18.63
2022-08-24T08:14:27.156Z,19.67
2022-08-24T08:16:54.814Z,14.98
2022-08-24T08:19:23.127Z,18.45
2022-08-24T08:22:13.073Z,13.13
2022-08-24T08:24:59.299Z,18.02
2022-08-24T08:27:28.388Z,13.40
2022-08-24T08:30:01.128Z,15.77
2022-08-24T08:32:33.163Z,13.77
2022-08-24T08:35:02.347Z,10.45
2022-08-24T08:37:43.864Z,15.02
2022-08-24T08:40:31.834Z,14.52
2022-08-24T08:43:05.385Z,14.70
2022-08-24T08:46:05.776Z,11.50
2022-08-24T08:48:58.818Z,7.55
2022-08-24T08:51:38.761Z,8.10
2022-08-24T08:57:24.705Z,8.30
2022-08-24T09:00:16.264Z,6.18
2022-08-24T09:02:53.341Z,5.95
2022-08-24T09:05:42.981Z,2.55
2022-08-24T09:08:40.765Z,6.35
2022-08-24T09:11:16.267Z,4.15
2022-08-24T09:14:06.224Z,4.50
2022-08-24T09:16:46.925Z,2.63
2022-08-24T09:19:40.913Z,3.42
2022-08-24T09:22:18.003Z,9.13
2022-08-24T09:24:54.300Z,8.93
2022-08-24T09:28:14.493Z,3.38
2022-08-24T09:31:09.471Z,5.60
2022-08-24T09:34:03.643Z,5.95
2022-08-24T09:36:54.156Z,5.10
2022-08-24T09:39:31.568Z,7.70
2022-08-24T09:42:35.406Z,4.03
2022-08-24T09:45:28.639Z,6.20
2022-08-24T09:48:22.002Z,3.50
2022-08-24T09:51:09.566Z,8.95
2022-08-24T09:54:05.578Z,7.97
2022-08-24T09:56:59.844Z,6.22
2022-08-24T09:59:55.985Z,3.92
2022-08-24T10:02:48.307Z,7.68
2022-08-24T10:05:41.863Z,8.18
2022-08-24T10:11:43.809Z,6.63
2022-08-24T10:14:19.300Z,6.20
2022-08-24T10:17:21.757Z,2.83
2022-08-24T10:20:04.918Z,4.45
2022-08-24T10:22:52.476Z,3.08
2022-08-24T10:25:39.497Z,1.95
2022-08-24T10:28:19.915Z,2.05
2022-08-24T10:30:59.185Z,4.43
2022-08-24T10:33:51.054Z,1.27
2022-08-24T10:36:42.452Z,0.57
2022-08-24T10:39:46.169Z,16.13
2022-08-24T10:43:11.737Z,3.83
2022-08-24T10:49:02.170Z,4.20
2022-08-24T10:52:04.766Z,4.68
2022-08-24T10:54:36.388Z,4.40
2022-08-24T10:57:34.356Z,1.55
2022-08-24T11:00:22.882Z,2.05
2022-08-24T11:03:19.510Z,3.33
2022-08-24T11:05:53.031Z,4.15
2022-08-24T11:08:25.020Z,3.75
2022-08-24T11:11:17.314Z,2.80
2022-08-24T11:13:59.604Z,5.32
2022-08-24T11:16:33.353Z,1.80
2022-08-24T11:19:05.395Z,4.63
2022-08-24T11:21:45.782Z,3.17
2022-08-24T11:24:19.314Z,4.15
2022-08-24T11:26:59.340Z,1.85
2022-08-24T11:29:56.087Z,2.08
2022-08-24T11:32:41.492Z,2.17
2022-08-24T11:35:29.847Z,2.28
2022-08-24T11:38:14.683Z,7.47
2022-08-24T11:40:47.930Z,3.10
2022-08-24T11:43:22.742Z,3.40
2022-08-24T11:46:07.807Z,1.02
2022-08-24T11:48:54.381Z,3.67
2022-08-24T11:51:37.420Z,4.10
2022-08-24T11:54:26.537Z,2.75
2022-08-24T11:57:15.450Z,2.05
2022-08-24T12:00:03.982Z,6.38
2022-08-24T12:03:01.667Z,1.70
2022-08-24T12:05:35.475Z,4.68
2022-08-24T12:08:21.764Z,2.67
2022-08-24T12:14:27.149Z,4.80
2022-08-24T12:17:07.429Z,1.83
2022-08-24T12:19:39.950Z,3.08
2022-08-24T12:22:11.232Z,1.48
2022-08-24T12:24:52.096Z,2.80
2022-08-24T12:27:31.606Z,2.40
2022-08-24T12:30:05.930Z,4.63
2022-08-24T12:32:42.158Z,2.88
2022-08-24T12:35:53.483Z,3.80
2022-08-24T12:38:26.847Z,3.35
2022-08-24T12:40:57.566Z,2.80
2022-08-24T12:43:25.600Z,2.28
2022-08-24T12:45:56.947Z,2.15
2022-08-24T12:48:27.865Z,4.18
2022-08-24T12:51:16.685Z,2.92
2022-08-24T12:54:05.730Z,3.75
2022-08-24T12:56:55.637Z,4.22
2022-08-24T12:59:31.480Z,2.40
2022-08-24T13:02:04.269Z,4.47
2022-08-24T13:04:40.682Z,7.45
2022-08-24T13:07:32.527Z,5.28
2022-08-24T13:09:59.785Z,6.13
2022-08-24T13:12:41.751Z,10.68
2022-08-24T13:15:26.470Z,2.75
2022-08-24T13:18:02.559Z,1.80
2022-08-24T13:20:43.857Z,4.18
2022-08-24T13:23:12.210Z,4.43
2022-08-24T13:25:52.612Z,13.20
2022-08-24T13:28:29.006Z,3.90
2022-08-24T13:31:22.510Z,5.55
2022-08-24T13:34:09.954Z,4.82
2022-08-24T13:36:47.492Z,4.13
2022-08-24T13:39:35.138Z,4.93
2022-08-24T13:42:31.586Z,4.68
2022-08-24T13:45:26.910Z,3.75
2022-08-24T13:48:38.555Z,3.75
2022-08-24T13:51:24.710Z,5.22
2022-08-24T13:54:04.394Z,3.03
2022-08-24T13:59:16.193Z,2.33
2022-08-24T14:01:52.267Z,2.03
2022-08-24T14:04:26.046Z,3.80
2022-08-24T14:06:56.538Z,5.05
2022-08-24T14:10:02.859Z,2.78
2022-08-24T14:16:21.711Z,1.55
2022-08-24T14:19:23.622Z,2.70
2022-08-24T14:22:11.179Z,3.15
2022-08-24T14:25:03.616Z,1.58
2022-08-24T14:27:43.660Z,4.28
2022-08-24T14:30:21.763Z,5.30
2022-08-24T14:33:05.842Z,2.60
2022-08-24T14:35:42.370Z,1.38
2022-08-24T14:38:13.050Z,3.60
2022-08-24T14:40:54.911Z,4.63
2022-08-24T14:43:51.677Z,4.93
2022-08-24T14:46:36.157Z,3.92
2022-08-24T14:49:41.887Z,2.65
2022-08-24T14:53:03.000Z,6.60
2022-08-24T14:55:45.341Z,4.53
2022-08-24T14:58:29.841Z,2.55
2022-08-24T15:01:26.584Z,12.05
2022-08-24T15:04:41.688Z,2.47
2022-08-24T15:07:26.645Z,5.28
2022-08-24T15:09:55.911Z,4.45
2022-08-24T15:12:39.057Z,4.45
2022-08-24T15:15:52.481Z,3.10
2022-08-24T15:18:49.094Z,4.47
2022-08-24T15:21:37.096Z,5.25
2022-08-24T15:24:45.541Z,2.40
2022-08-24T15:27:19.849Z,4.25
2022-08-24T15:30:02.728Z,1.77
2022-08-24T15:32:49.331Z,2.20
2022-08-24T15:35:33.188Z,2.25
2022-08-24T15:38:25.703Z,2.78
2022-08-24T15:41:19.947Z,4.55
2022-08-24T15:43:59.949Z,4.38
2022-08-24T15:46:37.069Z,6.55
2022-08-24T15:49:15.026Z,2.42
2022-08-24T15:52:11.028Z,2.72
2022-08-24T15:54:46.471Z,3.45
2022-08-24T15:57:26.580Z,4.07
2022-08-24T16:00:05.612Z,4.45
2022-08-24T16:02:39.473Z,2.42
2022-08-24T16:05:28.548Z,4.05
2022-08-24T16:08:11.976Z,3.58
2022-08-24T16:10:48.546Z,1.98
2022-08-24T16:13:29.008Z,1.45
2022-08-24T16:15:57.401Z,1.63
2022-08-24T16:18:41.017Z,3.30
2022-08-24T16:21:38.725Z,3.42
2022-08-24T16:24:10.773Z,2.88
2022-08-24T16:26:47.705Z,7.32
2022-08-24T16:29:37.871Z,4.95
2022-08-24T16:32:31.502Z,4.97
2022-08-24T16:35:13.767Z,3.72
2022-08-24T16:37:41.764Z,2.60
2022-08-24T16:40:13.154Z,3.30
2022-08-24T16:42:41.609Z,3.40
2022-08-24T16:45:12.311Z,7.10
2022-08-24T16:47:39.762Z,5.55
2022-08-24T16:50:07.648Z,4.78
2022-08-24T16:52:35.314Z,2.72
2022-08-24T16:55:03.888Z,4.25
2022-08-24T16:57:37.997Z,5.03
2022-08-24T17:00:15.511Z,4.70
2022-08-24T17:02:45.140Z,6.50
2022-08-24T17:05:13.554Z,2.70
2022-08-24T17:07:41.990Z,6.75
2022-08-24T17:10:13.598Z,5.65
2022-08-24T17:12:43.118Z,2.05
2022-08-24T17:15:17.782Z,3.60
2022-08-24T17:17:56.712Z,3.97
2022-08-24T17:20:25.346Z,3.30
2022-08-24T17:22:53.065Z,5.30
2022-08-24T17:25:20.601Z,3.47
2022-08-24T17:27:49.061Z,3.38
2022-08-24T17:30:20.412Z,3.75
2022-08-24T17:32:48.276Z,2.72
2022-08-24T17:35:17.199Z,3.92
2022-08-24T17:37:44.766Z,2.05
2022-08-24T17:40:15.369Z,3.17
2022-08-24T17:42:51.219Z,2.92
2022-08-24T17:45:23.027Z,3.05
2022-08-24T17:47:53.208Z,2.92
2022-08-24T17:52:58.887Z,4.15
2022-08-24T17:55:34.689Z,4.95
2022-08-24T17:58:03.822Z,6.07
2022-08-24T18:00:32.739Z,4.40
2022-08-24T18:03:01.649Z,4.85
2022-08-24T18:05:35.063Z,4.10
2022-08-24T18:08:03.832Z,2.45
2022-08-24T18:10:36.777Z,5.28
2022-08-24T18:13:04.503Z,6.03
2022-08-24T18:34:19.214Z,6.85
2022-08-24T18:36:47.685Z,3.83
2022-08-24T18:39:16.041Z,5.88
2022-08-24T18:41:49.170Z,7.50
2022-08-24T18:44:22.211Z,2.25
2022-08-24T18:46:51.254Z,5.53
2022-08-24T18:49:20.279Z,4.45
2022-08-24T18:51:48.711Z,3.72
2022-08-24T18:54:23.796Z,5.75
2022-08-24T18:56:52.495Z,4.95
2022-08-24T18:59:21.387Z,3.35
2022-08-24T19:02:09.738Z,4.60
2022-08-24T19:04:45.379Z,3.45
2022-08-24T19:07:15.287Z,4.00
2022-08-24T19:09:53.831Z,14.20
2022-08-24T19:12:22.263Z,5.13
2022-08-24T19:14:53.931Z,5.18
2022-08-24T19:17:21.278Z,3.00
2022-08-24T19:19:49.188Z,8.10
2022-08-24T19:22:18.333Z,10.38
2022-08-24T19:24:48.140Z,3.83
2022-08-24T19:27:17.428Z,5.25
2022-08-24T19:29:56.019Z,8.48
2022-08-24T19:32:29.553Z,6.13
2022-08-24T19:34:58.803Z,8.88
2022-08-24T19:37:27.390Z,4.70
2022-08-24T19:39:55.122Z,2.85
2022-08-24T19:42:25.508Z,4.53
2022-08-24T19:45:12.714Z,3.93
2022-08-24T19:47:40.930Z,6.75
2022-08-24T19:50:21.176Z,5.57
2022-08-24T19:52:49.172Z,4.72
2022-08-24T19:55:17.229Z,6.32
2022-08-24T19:57:48.226Z,8.30
2022-08-24T20:00:18.720Z,4.07
2022-08-24T20:02:51.968Z,3.58
2022-08-24T20:05:21.511Z,6.68
2022-08-24T20:07:50.134Z,4.53
2022-08-24T20:10:20.283Z,8.32
2022-08-24T20:12:47.948Z,5.25
2022-08-24T20:15:24.034Z,9.85
2022-08-24T20:17:52.698Z,3.80
2022-08-24T20:20:25.497Z,2.92
2022-08-24T20:22:53.674Z,6.90
2022-08-24T20:25:23.398Z,4.18
2022-08-24T20:28:06.897Z,4.80
2022-08-24T20:30:44.255Z,4.93
2022-08-24T20:33:21.571Z,4.97
2022-08-24T20:35:50.010Z,3.53
2022-08-24T20:38:20.313Z,2.88
2022-08-24T20:40:50.127Z,5.32
2022-08-24T20:43:18.601Z,4.40
2022-08-24T20:45:46.829Z,3.72
2022-08-24T20:48:47.242Z,5.55
2022-08-24T20:51:32.618Z,5.32
2022-08-24T20:54:05.205Z,5.18
2022-08-24T20:56:41.721Z,4.90
2022-08-24T20:59:12.057Z,3.42
2022-08-24T21:01:43.726Z,4.28
2022-08-24T21:04:12.265Z,5.90
2022-08-24T21:06:44.502Z,5.00
2022-08-24T21:09:14.232Z,4.47
2022-08-24T21:11:43.876Z,5.97
2022-08-24T21:14:13.484Z,4.28
2022-08-24T21:16:43.579Z,5.50
2022-08-24T21:19:14.614Z,4.65
2022-08-24T21:21:42.764Z,3.58
2022-08-24T21:24:10.846Z,5.95
2022-08-24T21:27:12.468Z,4.15
2022-08-24T21:29:40.518Z,3.63
2022-08-24T21:32:35.934Z,7.00
2022-08-24T21:35:03.614Z,4.38
2022-08-24T21:37:31.711Z,6.25
2022-08-24T21:39:59.440Z,3.83
2022-08-24T21:42:27.742Z,4.50
2022-08-24T21:44:55.414Z,4.57
2022-08-24T21:47:24.020Z,6.38
2022-08-24T21:49:51.885Z,6.88
2022-08-24T21:52:19.941Z,4.13
2022-08-24T21:54:47.249Z,5.47
2022-08-24T21:57:15.995Z,3.70
2022-08-24T21:59:44.731Z,8.98
2022-08-24T22:02:21.342Z,4.78
2022-08-24T22:04:55.974Z,4.88
2022-08-24T22:07:25.345Z,5.20
2022-08-24T22:09:55.458Z,5.28
2022-08-24T22:12:22.919Z,3.05
2022-08-24T22:14:50.496Z,5.03
2022-08-24T22:17:19.393Z,4.30
2022-08-24T22:20:21.552Z,4.28
2022-08-24T22:22:52.303Z,5.05
2022-08-24T22:25:20.483Z,4.88
2022-08-24T22:27:50.337Z,6.38
2022-08-24T22:30:18.857Z,7.03
2022-08-24T22:32:46.948Z,3.80
2022-08-24T22:35:16.806Z,6.57
2022-08-24T22:37:46.820Z,7.53
2022-08-24T22:40:15.193Z,4.25
2022-08-24T22:42:46.674Z,4.60
2022-08-24T22:45:13.974Z,7.90
2022-08-24T22:47:41.372Z,5.82
2022-08-24T22:50:09.274Z,4.30
2022-08-24T22:52:38.930Z,4.60
2022-08-24T22:55:08.212Z,9.77
2022-08-24T22:57:35.883Z,5.93
2022-08-24T23:00:15.053Z,4.22
2022-08-24T23:02:45.029Z,4.30
2022-08-24T23:05:12.772Z,7.18
2022-08-24T23:07:40.294Z,4.15
2022-08-24T23:10:08.918Z,6.72
2022-08-24T23:12:36.886Z,6.38
2022-08-24T23:15:04.828Z,5.25
2022-08-24T23:17:33.663Z,5.25
2022-08-24T23:20:02.600Z,7.80
2022-08-24T23:22:34.797Z,5.45
2022-08-24T23:25:09.321Z,8.00
2022-08-24T23:27:38.669Z,7.75
2022-08-24T23:30:12.830Z,8.95
2022-08-24T23:32:53.168Z,5.20
2022-08-24T23:37:48.501Z,5.40
2022-08-24T23:40:16.003Z,4.93
2022-08-24T23:42:44.685Z,6.30
2022-08-24T23:45:12.968Z,6.95
2022-08-24T23:47:41.231Z,6.72
2022-08-24T23:50:11.571Z,8.48
2022-08-24T23:52:40.765Z,7.07
2022-08-24T23:55:19.964Z,5.60
2022-08-24T23:57:52.842Z,4.78
